createdAt,value
2018-03-16T00:01:10.855Z,8.30
2018-03-16T00:03:37.975Z,8.52
2018-03-16T00:06:05.173Z,8.45
2018-03-16T00:08:32.418Z,8.62
2018-03-16T00:10:59.754Z,8.53
2018-03-16T00:13:27.080Z,8.53
2018-03-16T00:15:54.321Z,8.79
2018-03-16T00:18:22.343Z,9.06
2018-03-16T00:20:49.666Z,9.01
2018-03-16T00:23:17.150Z,8.97
2018-03-16T00:25:44.264Z,9.12
2018-03-16T00:28:11.410Z,9.27
2018-03-16T00:30:39.848Z,9.22
2018-03-16T00:33:06.965Z,9.06
2018-03-16T00:35:34.761Z,9.02
2018-03-16T00:38:01.940Z,9.16
2018-03-16T00:40:30.266Z,9.13
2018-03-16T00:42:58.030Z,9.10
2018-03-16T00:45:25.173Z,8.91
2018-03-16T00:47:52.284Z,8.73
2018-03-16T00:50:23.465Z,8.50
2018-03-16T00:52:50.753Z,8.40
2018-03-16T00:55:17.876Z,8.54
2018-03-16T00:57:45.153Z,8.54
2018-03-16T01:00:12.333Z,8.66
2018-03-16T01:02:39.490Z,8.50
2018-03-16T01:05:06.709Z,8.35
2018-03-16T01:07:33.784Z,8.37
2018-03-16T01:10:04.637Z,8.32
2018-03-16T01:12:31.650Z,8.26
2018-03-16T01:14:58.872Z,8.37
2018-03-16T01:17:26.137Z,8.42
2018-03-16T01:19:57.213Z,7.76
2018-03-16T01:22:24.417Z,7.85
2018-03-16T01:24:51.615Z,7.86
2018-03-16T01:27:19.542Z,8.06
2018-03-16T01:29:51.306Z,8.04
2018-03-16T01:32:18.546Z,8.01
2018-03-16T01:34:45.805Z,7.94
2018-03-16T01:37:13.011Z,8.26
2018-03-16T01:39:41.499Z,8.24
2018-03-16T01:42:08.814Z,7.72
2018-03-16T01:44:36.067Z,7.86
2018-03-16T01:47:03.320Z,7.96
2018-03-16T01:49:37.710Z,7.71
2018-03-16T01:52:05.537Z,7.46
2018-03-16T01:54:32.644Z,7.42
2018-03-16T01:56:59.947Z,7.67
2018-03-16T01:59:31.483Z,7.78
2018-03-16T02:01:58.741Z,7.47
2018-03-16T02:04:26.425Z,7.65
2018-03-16T02:06:53.685Z,7.60
2018-03-16T02:09:21.227Z,7.49
2018-03-16T02:11:49.858Z,7.40
2018-03-16T02:14:17.137Z,7.11
2018-03-16T02:16:44.409Z,6.97
2018-03-16T02:19:18.129Z,6.93
2018-03-16T02:21:45.334Z,6.80
2018-03-16T02:24:13.503Z,6.79
2018-03-16T02:26:40.715Z,7.05
2018-03-16T02:29:07.949Z,6.83
2018-03-16T02:31:35.231Z,6.88
2018-03-16T02:34:02.452Z,6.72
2018-03-16T02:36:29.714Z,6.75
2018-03-16T02:39:01.182Z,6.99
2018-03-16T02:44:17.323Z,6.77
2018-03-16T02:46:44.614Z,6.74
2018-03-16T02:49:17.766Z,6.98
2018-03-16T02:51:44.995Z,7.00
2018-03-16T02:54:12.172Z,6.82
2018-03-16T02:56:39.347Z,6.65
2018-03-16T02:59:07.737Z,6.54
2018-03-16T03:01:34.916Z,6.67
2018-03-16T03:04:02.047Z,6.21
2018-03-16T03:06:29.200Z,6.36
2018-03-16T03:08:56.565Z,6.74
2018-03-16T03:11:23.835Z,6.90
2018-03-16T03:13:51.139Z,6.69
2018-03-16T03:16:18.310Z,6.72
2018-03-16T03:18:48.693Z,6.53
2018-03-16T03:21:16.890Z,6.70
2018-03-16T03:23:44.177Z,6.65
2018-03-16T03:26:12.111Z,6.39
2018-03-16T03:28:41.297Z,6.33
2018-03-16T03:31:08.765Z,6.47
2018-03-16T03:33:35.921Z,6.09
2018-03-16T03:36:03.238Z,6.37
2018-03-16T03:38:34.648Z,6.47
2018-03-16T03:41:01.788Z,6.24
2018-03-16T03:43:29.020Z,5.69
2018-03-16T03:45:56.222Z,6.17
2018-03-16T03:48:23.558Z,6.38
2018-03-16T03:50:51.578Z,6.38
2018-03-16T03:53:18.710Z,6.69
2018-03-16T03:55:46.027Z,6.49
2018-03-16T03:58:19.148Z,6.34
2018-03-16T04:00:46.301Z,6.53
2018-03-16T04:03:13.554Z,6.38
2018-03-16T04:05:40.712Z,6.06
2018-03-16T04:08:07.963Z,5.82
2018-03-16T04:10:35.088Z,5.96
2018-03-16T04:13:02.397Z,5.97
2018-03-16T04:15:29.547Z,5.85
2018-03-16T04:18:02.910Z,6.10
2018-03-16T04:20:30.128Z,6.27
2018-03-16T04:22:57.362Z,6.21
2018-03-16T04:25:24.633Z,6.07
2018-03-16T04:27:57.462Z,6.37
2018-03-16T04:30:24.730Z,6.54
2018-03-16T04:32:51.970Z,6.60
2018-03-16T04:35:19.173Z,6.68
2018-03-16T04:37:49.689Z,6.93
2018-03-16T04:40:17.671Z,6.87
2018-03-16T04:42:45.785Z,7.05
2018-03-16T04:45:12.943Z,7.16
2018-03-16T04:47:40.598Z,7.28
2018-03-16T04:50:07.810Z,7.64
2018-03-16T04:52:35.049Z,7.65
2018-03-16T04:55:02.769Z,7.79
2018-03-16T04:57:30.014Z,7.75
2018-03-16T05:00:01.205Z,7.76
2018-03-16T05:02:28.413Z,7.89
2018-03-16T05:04:55.754Z,8.03
2018-03-16T05:07:23.088Z,8.17
2018-03-16T05:09:50.422Z,8.50
2018-03-16T05:12:17.629Z,9.06
2018-03-16T05:14:44.913Z,8.19
2018-03-16T05:17:12.554Z,7.45
2018-03-16T05:19:40.922Z,6.66
2018-03-16T05:22:08.262Z,6.75
2018-03-16T05:24:35.548Z,6.95
2018-03-16T05:27:02.669Z,7.01
2018-03-16T05:29:34.790Z,7.31
2018-03-16T05:32:02.330Z,7.64
2018-03-16T05:34:29.584Z,8.08
2018-03-16T05:45:48.594Z,8.46
2018-03-16T05:48:16.071Z,8.38
2018-03-16T05:50:43.291Z,7.79
2018-03-16T05:53:11.462Z,8.09
2018-03-16T05:55:38.760Z,8.09
2018-03-16T05:58:07.104Z,8.09
2018-03-16T06:00:34.327Z,8.24
2018-03-16T06:03:02.149Z,8.66
2018-03-16T06:05:29.458Z,8.78
2018-03-16T06:07:57.910Z,9.32
2018-03-16T06:10:25.241Z,9.73
2018-03-16T06:12:52.454Z,10.01
2018-03-16T06:15:19.774Z,9.78
2018-03-16T06:17:48.174Z,9.52
2018-03-16T06:20:15.375Z,9.61
2018-03-16T06:22:42.533Z,10.04
2018-03-16T06:25:09.722Z,10.08
2018-03-16T06:27:41.189Z,10.13
2018-03-16T06:30:08.450Z,10.24
2018-03-16T06:32:35.737Z,9.81
2018-03-16T06:35:02.984Z,9.70
2018-03-16T06:37:35.358Z,9.96
2018-03-16T06:40:02.548Z,10.20
2018-03-16T06:42:29.788Z,10.48
2018-03-16T06:44:57.262Z,10.57
2018-03-16T06:47:27.529Z,10.07
2018-03-16T06:49:55.203Z,10.57
2018-03-16T06:52:22.514Z,11.07
2018-03-16T06:54:49.726Z,11.50
2018-03-16T06:57:17.009Z,11.48
2018-03-16T06:59:44.253Z,11.34
2018-03-16T07:02:11.516Z,11.53
2018-03-16T07:04:38.862Z,11.75
2018-03-16T07:07:06.085Z,11.84
2018-03-16T07:09:41.642Z,11.89
2018-03-16T07:12:08.938Z,12.22
2018-03-16T07:14:36.285Z,14.63
2018-03-16T07:17:03.440Z,12.75
2018-03-16T07:19:35.061Z,14.44
2018-03-16T07:22:02.333Z,12.89
2018-03-16T07:24:29.507Z,12.54
2018-03-16T07:26:56.902Z,13.42
2018-03-16T07:29:30.306Z,13.28
2018-03-16T07:31:58.378Z,13.20
2018-03-16T07:34:25.574Z,13.77
2018-03-16T07:36:53.049Z,13.51
2018-03-16T07:39:24.255Z,13.18
2018-03-16T07:41:51.585Z,13.42
2018-03-16T07:44:19.571Z,13.37
2018-03-16T07:46:46.853Z,13.13
2018-03-16T07:49:14.117Z,14.00
2018-03-16T07:51:41.318Z,14.21
2018-03-16T07:54:08.591Z,14.38
2018-03-16T07:56:35.687Z,16.33
2018-03-16T07:59:03.935Z,14.96
2018-03-16T08:01:31.227Z,14.58
2018-03-16T08:03:58.412Z,15.48
2018-03-16T08:06:26.013Z,16.19
2018-03-16T08:08:56.946Z,14.99
2018-03-16T08:11:24.299Z,14.41
2018-03-16T08:13:51.453Z,14.07
2018-03-16T08:16:32.922Z,14.24
2018-03-16T08:19:04.079Z,14.00
2018-03-16T08:21:31.392Z,14.24
2018-03-16T08:23:58.698Z,14.16
2018-03-16T08:26:26.971Z,14.32
2018-03-16T08:28:54.455Z,14.63
2018-03-16T08:31:21.977Z,15.15
2018-03-16T08:33:49.275Z,14.38
2018-03-16T08:36:16.531Z,14.67
2018-03-16T08:38:54.091Z,14.73
2018-03-16T08:41:21.274Z,14.76
2018-03-16T08:43:48.595Z,14.34
2018-03-16T08:46:15.781Z,14.95
2018-03-16T08:48:46.899Z,14.45
2018-03-16T08:51:14.166Z,15.28
2018-03-16T08:53:41.340Z,15.37
2018-03-16T08:56:08.626Z,15.59
2018-03-16T08:58:39.198Z,15.48
2018-03-16T09:01:06.447Z,15.63
2018-03-16T09:03:33.622Z,15.10
2018-03-16T09:06:00.929Z,15.86
2018-03-16T09:08:31.317Z,15.87
2018-03-16T09:10:58.452Z,15.74
2018-03-16T09:13:26.342Z,15.92
2018-03-16T09:15:53.454Z,16.12
2018-03-16T09:18:24.485Z,16.30
2018-03-16T09:20:51.666Z,16.56
2018-03-16T09:23:18.892Z,16.21
2018-03-16T09:25:46.093Z,16.38
2018-03-16T09:28:17.303Z,16.47
2018-03-16T09:30:44.550Z,16.24
2018-03-16T09:33:11.862Z,16.73
2018-03-16T09:35:38.929Z,17.23
2018-03-16T09:38:09.373Z,16.84
2018-03-16T09:40:37.353Z,17.19
2018-03-16T09:43:04.539Z,17.50
2018-03-16T09:45:32.330Z,16.74
2018-03-16T09:48:00.710Z,16.21
2018-03-16T09:50:27.904Z,16.90
2018-03-16T09:52:55.820Z,17.57
2018-03-16T09:55:46.531Z,17.60
2018-03-16T09:58:20.001Z,17.63
2018-03-16T10:00:47.802Z,17.41
2018-03-16T10:03:14.957Z,17.09
2018-03-16T10:05:42.258Z,16.93
2018-03-16T10:08:15.194Z,18.27
2018-03-16T10:10:43.189Z,18.62
2018-03-16T10:13:10.397Z,17.37
2018-03-16T10:15:37.688Z,16.99
2018-03-16T10:18:05.886Z,18.22
2018-03-16T10:20:33.121Z,17.44
2018-03-16T10:23:00.795Z,17.28
2018-03-16T10:25:27.879Z,18.08
2018-03-16T10:27:58.333Z,19.04
2018-03-16T10:30:25.887Z,17.06
2018-03-16T10:32:53.161Z,17.86
2018-03-16T10:35:20.341Z,17.83
2018-03-16T10:37:48.810Z,17.51
2018-03-16T10:40:16.080Z,17.99
2018-03-16T10:42:43.367Z,17.34
2018-03-16T10:45:10.594Z,17.90
2018-03-16T10:47:48.334Z,18.09
2018-03-16T10:50:15.522Z,18.26
2018-03-16T10:52:43.439Z,18.52
2018-03-16T10:55:10.677Z,19.11
2018-03-16T10:57:38.917Z,18.46
2018-03-16T11:00:06.282Z,18.56
2018-03-16T11:02:39.511Z,19.10
2018-03-16T11:08:05.150Z,18.94
2018-03-16T11:10:32.481Z,19.68
2018-03-16T11:12:59.757Z,19.26
2018-03-16T11:15:26.985Z,20.05
2018-03-16T11:17:58.026Z,18.79
2018-03-16T11:20:25.238Z,19.91
2018-03-16T11:22:52.663Z,19.87
2018-03-16T11:25:20.554Z,19.98
2018-03-16T11:27:51.447Z,19.81
2018-03-16T11:30:18.591Z,20.21
2018-03-16T11:32:46.565Z,20.28
2018-03-16T11:35:14.623Z,20.26
2018-03-16T11:37:47.625Z,20.08
2018-03-16T11:40:15.695Z,20.15
2018-03-16T11:42:42.921Z,20.39
2018-03-16T11:45:10.212Z,20.54
2018-03-16T11:47:40.558Z,19.99
2018-03-16T11:50:07.713Z,20.79
2018-03-16T11:52:34.899Z,21.02
2018-03-16T11:55:02.034Z,21.35
2018-03-16T11:57:35.822Z,20.78
2018-03-16T12:00:03.014Z,20.59
2018-03-16T12:02:30.309Z,21.27
2018-03-16T12:04:57.530Z,20.62
2018-03-16T12:07:24.878Z,20.20
2018-03-16T12:09:52.114Z,20.38
2018-03-16T12:12:19.828Z,20.68
2018-03-16T12:14:47.136Z,20.74
2018-03-16T12:17:20.018Z,20.52
2018-03-16T12:19:48.105Z,20.94
2018-03-16T12:22:15.309Z,20.89
2018-03-16T12:24:42.511Z,18.02
2018-03-16T12:27:10.934Z,17.57
2018-03-16T12:29:38.232Z,17.35
2018-03-16T12:32:05.346Z,16.89
2018-03-16T12:34:32.561Z,17.05
2018-03-16T12:37:00.183Z,16.89
2018-03-16T12:39:27.465Z,17.79
2018-03-16T12:41:54.583Z,17.67
2018-03-16T12:44:21.873Z,18.16
2018-03-16T12:46:52.392Z,18.15
2018-03-16T12:49:19.556Z,18.23
2018-03-16T12:51:46.921Z,18.80
2018-03-16T12:54:14.193Z,20.18
2018-03-16T12:56:41.688Z,20.02
2018-03-16T12:59:09.045Z,20.03
2018-03-16T13:01:36.045Z,19.36
2018-03-16T13:04:03.489Z,19.91
2018-03-16T13:06:30.614Z,20.06
2018-03-16T13:08:57.894Z,20.20
2018-03-16T13:11:25.058Z,20.61
2018-03-16T13:13:52.425Z,20.03
2018-03-16T13:16:19.646Z,19.60
2018-03-16T13:18:46.954Z,20.38
2018-03-16T13:21:14.111Z,20.90
2018-03-16T13:23:41.422Z,20.83
2018-03-16T13:26:08.698Z,20.40
2018-03-16T13:28:41.207Z,20.37
2018-03-16T13:31:08.583Z,19.87
2018-03-16T13:33:35.870Z,20.64
2018-03-16T13:36:03.210Z,20.69
2018-03-16T13:38:31.372Z,19.89
2018-03-16T13:40:58.561Z,19.21
2018-03-16T13:43:26.477Z,19.89
2018-03-16T13:45:53.455Z,20.05
2018-03-16T13:48:21.895Z,19.81
2018-03-16T13:50:49.073Z,18.68
2018-03-16T13:53:16.309Z,19.46
2018-03-16T13:55:43.623Z,18.57
2018-03-16T13:58:12.742Z,19.73
2018-03-16T14:00:40.174Z,18.80
2018-03-16T14:03:07.278Z,18.85
2018-03-16T14:05:34.397Z,18.66
2018-03-16T14:08:04.811Z,19.77
2018-03-16T14:10:32.777Z,19.24
2018-03-16T14:12:59.995Z,19.93
2018-03-16T14:15:27.238Z,19.00
2018-03-16T14:17:59.159Z,19.79
2018-03-16T14:20:26.562Z,18.73
2018-03-16T14:22:54.594Z,17.83
2018-03-16T14:25:21.943Z,18.51
2018-03-16T14:27:55.491Z,17.56
2018-03-16T14:30:22.601Z,18.59
2018-03-16T14:32:49.810Z,17.91
2018-03-16T14:35:16.938Z,17.99
2018-03-16T14:37:45.391Z,18.41
2018-03-16T14:40:12.620Z,18.04
2018-03-16T14:42:39.951Z,16.81
2018-03-16T14:45:07.182Z,17.11
2018-03-16T14:47:35.463Z,16.98
2018-03-16T14:50:02.795Z,16.92
2018-03-16T14:52:30.022Z,16.89
2018-03-16T14:54:57.221Z,16.68
2018-03-16T14:57:28.024Z,16.68
2018-03-16T14:59:55.374Z,16.32
2018-03-16T15:02:22.647Z,16.05
2018-03-16T15:04:49.974Z,15.90
2018-03-16T15:07:17.330Z,16.00
2018-03-16T15:09:44.613Z,15.64
2018-03-16T15:12:12.614Z,15.57
2018-03-16T15:14:39.770Z,15.77
2018-03-16T15:17:10.924Z,15.55
2018-03-16T15:19:38.160Z,15.91
2018-03-16T15:22:05.449Z,15.26
2018-03-16T15:24:33.370Z,15.43
2018-03-16T15:27:04.539Z,15.51
2018-03-16T15:29:31.811Z,15.35
2018-03-16T15:31:58.931Z,15.05
2018-03-16T15:34:26.187Z,15.06
2018-03-16T15:36:53.279Z,14.94
2018-03-16T15:39:20.611Z,14.90
2018-03-16T15:41:47.946Z,15.03
2018-03-16T15:44:15.171Z,14.97
2018-03-16T15:46:45.422Z,14.76
2018-03-16T15:49:13.439Z,14.63
2018-03-16T15:51:40.611Z,14.40
2018-03-16T15:54:07.855Z,14.27
2018-03-16T15:56:35.913Z,14.14
2018-03-16T15:59:03.167Z,14.07
2018-03-16T16:01:30.284Z,13.99
2018-03-16T16:03:57.426Z,13.92
2018-03-16T16:06:28.539Z,14.02
2018-03-16T16:08:55.770Z,13.89
2018-03-16T16:11:25.958Z,13.92
2018-03-16T16:13:53.198Z,14.15
2018-03-16T16:16:21.631Z,14.04
2018-03-16T16:18:48.942Z,14.18
2018-03-16T16:21:16.859Z,14.06
2018-03-16T16:23:44.055Z,14.13
2018-03-16T16:26:16.024Z,14.11
2018-03-16T16:28:43.308Z,14.14
2018-03-16T16:31:10.573Z,14.06
2018-03-16T16:33:37.943Z,14.02
2018-03-16T16:36:06.450Z,14.06
2018-03-16T16:38:33.750Z,14.12
2018-03-16T16:41:01.752Z,14.12
2018-03-16T16:43:29.075Z,14.17
2018-03-16T16:45:56.336Z,14.12
2018-03-16T16:48:24.434Z,14.21
2018-03-16T16:50:51.669Z,14.20
2018-03-16T16:53:19.010Z,14.29
2018-03-16T16:55:47.920Z,14.00
2018-03-16T16:58:15.184Z,13.97
2018-03-16T17:00:42.433Z,13.84
2018-03-16T17:03:09.766Z,13.89
2018-03-16T17:05:37.062Z,13.95
2018-03-16T17:08:08.232Z,14.07
2018-03-16T17:10:35.391Z,14.07
2018-03-16T17:13:02.685Z,14.02
2018-03-16T17:15:29.947Z,14.15
2018-03-16T17:18:04.973Z,14.01
2018-03-16T17:20:32.329Z,13.96
2018-03-16T17:22:59.602Z,14.05
2018-03-16T17:25:26.871Z,13.78
2018-03-16T17:27:55.339Z,13.95
2018-03-16T17:33:15.197Z,13.86
2018-03-16T17:35:43.553Z,13.89
2018-03-16T17:38:10.996Z,13.67
2018-03-16T17:40:39.047Z,13.69
2018-03-16T17:43:06.486Z,13.71
2018-03-16T17:45:33.887Z,13.94
2018-03-16T17:48:01.243Z,13.87
2018-03-16T17:50:29.292Z,13.74
2018-03-16T17:52:56.521Z,13.71
2018-03-16T17:55:27.172Z,13.71
2018-03-16T17:57:58.686Z,13.67
2018-03-16T18:00:25.898Z,13.64
2018-03-16T18:02:53.181Z,13.67
2018-03-16T18:05:21.195Z,13.58
2018-03-16T18:07:53.138Z,13.59
2018-03-16T18:10:21.101Z,13.68
2018-03-16T18:12:49.102Z,13.82
2018-03-16T18:15:16.210Z,13.73
2018-03-16T18:17:44.407Z,13.82
2018-03-16T18:20:12.335Z,13.96
2018-03-16T18:22:40.050Z,13.83
2018-03-16T18:25:07.169Z,14.05
2018-03-16T18:27:37.988Z,13.90
2018-03-16T18:30:05.769Z,13.83
2018-03-16T18:32:33.025Z,14.05
2018-03-16T18:35:00.332Z,14.00
2018-03-16T18:37:32.493Z,13.92
2018-03-16T18:39:59.724Z,13.80
2018-03-16T18:42:28.463Z,13.81
2018-03-16T18:44:55.882Z,13.84
2018-03-16T18:47:23.375Z,13.76
2018-03-16T18:49:50.574Z,13.81
2018-03-16T18:52:17.887Z,13.83
2018-03-16T18:54:45.203Z,13.82
2018-03-16T18:57:16.275Z,13.90
2018-03-16T18:59:43.586Z,13.87
2018-03-16T19:02:11.916Z,13.74
2018-03-16T19:04:39.115Z,13.67
2018-03-16T19:07:10.901Z,13.72
2018-03-16T19:09:38.398Z,13.90
2018-03-16T19:12:05.579Z,13.93
2018-03-16T19:14:32.975Z,13.86
2018-03-16T19:17:07.401Z,13.86
2018-03-16T19:19:34.632Z,15.21
2018-03-16T19:22:02.315Z,14.02
2018-03-16T19:24:29.688Z,13.99
2018-03-16T19:27:00.246Z,13.94
2018-03-16T19:29:27.607Z,13.95
2018-03-16T19:31:55.142Z,13.83
2018-03-16T19:34:22.355Z,13.94
2018-03-16T19:36:52.767Z,13.76
2018-03-16T19:39:20.022Z,13.72
2018-03-16T19:41:47.168Z,13.74
2018-03-16T19:44:14.580Z,13.72
2018-03-16T19:46:43.499Z,13.73
2018-03-16T19:49:10.927Z,13.71
2018-03-16T19:51:38.128Z,13.89
2018-03-16T19:54:09.100Z,13.79
2018-03-16T19:56:39.788Z,14.02
2018-03-16T19:59:07.609Z,14.00
2018-03-16T20:01:35.082Z,13.94
2018-03-16T20:04:02.332Z,13.89
2018-03-16T20:06:37.327Z,13.45
2018-03-16T20:09:05.124Z,13.64
2018-03-16T20:11:32.432Z,13.45
2018-03-16T20:13:59.735Z,13.57
2018-03-16T20:16:28.668Z,13.67
2018-03-16T20:18:56.021Z,13.54
2018-03-16T20:21:23.672Z,13.46
2018-03-16T20:23:51.029Z,13.59
2018-03-16T20:26:23.559Z,13.73
2018-03-16T20:28:50.865Z,13.56
2018-03-16T20:31:18.075Z,13.61
2018-03-16T20:33:45.290Z,13.73
2018-03-16T20:36:12.943Z,13.61
2018-03-16T20:38:40.191Z,13.73
2018-03-16T20:41:07.555Z,13.64
2018-03-16T20:43:35.057Z,13.87
2018-03-16T20:46:06.085Z,13.72
2018-03-16T20:48:33.358Z,13.71
2018-03-16T20:51:01.524Z,13.59
2018-03-16T20:53:28.856Z,13.62
2018-03-16T20:56:01.870Z,13.60
2018-03-16T20:58:29.780Z,13.56
2018-03-16T21:00:57.359Z,13.56
2018-03-16T21:03:24.623Z,13.50
2018-03-16T21:05:56.208Z,13.51
2018-03-16T21:08:23.502Z,13.64
2018-03-16T21:10:50.828Z,13.71
2018-03-16T21:13:18.305Z,13.80
2018-03-16T21:15:46.842Z,13.82
2018-03-16T21:18:13.992Z,14.01
2018-03-16T21:20:41.246Z,13.89
2018-03-16T21:23:08.466Z,13.82
2018-03-16T21:25:36.882Z,13.73
2018-03-16T21:28:04.131Z,13.93
2018-03-16T21:30:32.765Z,13.86
2018-03-16T21:33:00.182Z,14.01
2018-03-16T21:35:34.982Z,13.74
2018-03-16T21:38:02.352Z,13.72
2018-03-16T21:40:29.632Z,13.87
2018-03-16T21:42:56.991Z,13.88
2018-03-16T21:45:28.137Z,13.78
2018-03-16T21:47:55.511Z,13.83
2018-03-16T21:50:22.644Z,13.71
2018-03-16T21:52:49.783Z,13.60
2018-03-16T21:55:22.751Z,13.65
2018-03-16T21:57:49.928Z,13.54
2018-03-16T22:00:17.223Z,13.53
2018-03-16T22:02:44.394Z,13.65
2018-03-16T22:05:11.683Z,13.54
2018-03-16T22:07:38.887Z,13.56
2018-03-16T22:10:06.113Z,13.57
2018-03-16T22:12:33.405Z,13.28
2018-03-16T22:15:04.330Z,13.43
2018-03-16T22:17:31.509Z,12.84
2018-03-16T22:19:58.740Z,12.88
2018-03-16T22:22:26.205Z,12.96
2018-03-16T22:24:53.429Z,12.93
2018-03-16T22:27:24.750Z,13.52
2018-03-16T22:29:52.163Z,13.46
2018-03-16T22:32:19.317Z,13.29
2018-03-16T22:34:46.638Z,12.70
2018-03-16T22:37:14.449Z,13.08
2018-03-16T22:39:41.763Z,13.13
2018-03-16T22:42:08.934Z,13.25
2018-03-16T22:44:36.220Z,12.58
2018-03-16T22:47:04.451Z,12.24
2018-03-16T22:49:31.703Z,11.97
2018-03-16T22:51:59.048Z,12.62
2018-03-16T22:54:26.227Z,12.89
2018-03-16T22:56:54.619Z,12.29
2018-03-16T22:59:21.839Z,11.93
2018-03-16T23:01:49.162Z,11.93
2018-03-16T23:04:17.215Z,12.22
2018-03-16T23:06:45.378Z,11.73
2018-03-16T23:09:12.715Z,11.30
2018-03-16T23:11:39.850Z,11.00
2018-03-16T23:14:07.158Z,11.26
2018-03-16T23:16:40.770Z,11.16
2018-03-16T23:19:08.546Z,11.21
2018-03-16T23:21:35.853Z,11.31
2018-03-16T23:24:03.072Z,11.23
2018-03-16T23:26:33.949Z,11.41
2018-03-16T23:29:01.042Z,12.04
2018-03-16T23:31:28.667Z,12.33
2018-03-16T23:33:55.717Z,12.21
2018-03-16T23:36:28.154Z,11.74
2018-03-16T23:38:55.340Z,11.70
2018-03-16T23:41:22.634Z,11.85
2018-03-16T23:43:50.593Z,11.75
2018-03-16T23:46:18.907Z,12.44
2018-03-16T23:48:46.186Z,12.50
2018-03-16T23:51:13.537Z,12.26
2018-03-16T23:53:41.475Z,12.81
2018-03-16T23:56:10.614Z,12.69
2018-03-16T23:58:37.854Z,12.71
